createdAt,value
2023-05-13T00:02:08.246Z,101223.00
2023-05-13T00:04:36.154Z,101224.00
2023-05-13T00:07:03.874Z,101223.00
2023-05-13T00:09:31.587Z,101222.00
2023-05-13T00:11:59.258Z,101224.00
2023-05-13T00:14:27.006Z,101214.00
2023-05-13T00:16:56.491Z,101216.00
2023-05-13T00:19:24.105Z,101220.00
2023-05-13T00:21:51.800Z,101222.00
2023-05-13T00:24:20.282Z,101219.00
2023-05-13T00:26:48.552Z,101221.00
2023-05-13T00:29:16.221Z,101223.00
2023-05-13T00:31:43.978Z,101219.00
2023-05-13T00:34:12.988Z,101223.00
2023-05-13T00:36:40.658Z,101215.00
2023-05-13T00:39:08.295Z,101224.00
2023-05-13T00:41:35.975Z,101230.00
2023-05-13T00:44:03.641Z,101224.00
2023-05-13T00:46:33.246Z,101232.00
2023-05-13T00:49:01.279Z,101232.00
2023-05-13T00:51:30.408Z,101226.00
2023-05-13T00:54:00.025Z,101235.00
2023-05-13T00:56:28.015Z,101231.00
2023-05-13T00:58:55.697Z,101240.00
2023-05-13T01:01:32.387Z,101244.00
2023-05-13T01:04:11.187Z,101241.00
2023-05-13T01:06:49.316Z,101241.00
2023-05-13T01:09:22.768Z,101238.00
2023-05-13T01:11:53.143Z,101242.00
2023-05-13T01:14:24.188Z,101247.00
2023-05-13T01:16:56.742Z,101241.00
2023-05-13T01:19:36.767Z,101230.00
2023-05-13T01:22:06.600Z,101240.00
2023-05-13T01:24:34.492Z,101233.00
2023-05-13T01:27:02.337Z,101231.00
2023-05-13T01:29:30.236Z,101232.00
2023-05-13T01:31:59.341Z,101227.00
2023-05-13T01:34:28.560Z,101239.00
2023-05-13T01:36:56.578Z,101236.00
2023-05-13T01:39:26.748Z,101236.00
2023-05-13T01:41:54.451Z,101234.00
2023-05-13T01:44:22.224Z,101236.00
2023-05-13T01:46:50.621Z,101247.00
2023-05-13T01:49:18.608Z,101244.00
2023-05-13T01:51:46.334Z,101250.00
2023-05-13T01:54:13.964Z,101242.00
2023-05-13T01:56:42.966Z,101236.00
2023-05-13T01:59:11.314Z,101237.00
2023-05-13T02:01:40.577Z,101242.00
2023-05-13T02:04:08.501Z,101243.00
2023-05-13T02:06:36.224Z,101241.00
2023-05-13T02:09:04.207Z,101236.00
2023-05-13T02:11:31.868Z,101241.00
2023-05-13T02:14:00.896Z,101242.00
2023-05-13T02:16:28.608Z,101250.00
2023-05-13T02:18:56.476Z,101235.00
2023-05-13T02:21:24.332Z,101245.00
2023-05-13T02:23:51.977Z,101240.00
2023-05-13T02:26:19.599Z,101239.00
2023-05-13T02:28:47.376Z,101242.00
2023-05-13T02:31:16.399Z,101242.00
2023-05-13T02:33:44.157Z,101232.00
2023-05-13T02:36:11.873Z,101242.00
2023-05-13T02:38:39.510Z,101242.00
2023-05-13T02:41:07.166Z,101243.00
2023-05-13T02:43:34.871Z,101241.00
2023-05-13T02:46:03.779Z,101243.00
2023-05-13T02:48:32.819Z,101247.00
2023-05-13T02:51:00.546Z,101248.00
2023-05-13T02:53:28.211Z,101238.00
2023-05-13T02:55:55.877Z,101240.00
2023-05-13T02:58:23.525Z,101243.00
2023-05-13T03:00:51.270Z,101242.00
2023-05-13T03:03:19.258Z,101240.00
2023-05-13T03:05:48.341Z,101235.00
2023-05-13T03:08:16.020Z,101240.00
2023-05-13T03:10:43.672Z,101236.00
2023-05-13T03:13:11.417Z,101245.00
2023-05-13T03:15:39.588Z,101244.00
2023-05-13T03:18:07.836Z,101242.00
2023-05-13T03:20:35.523Z,101243.00
2023-05-13T03:23:04.520Z,101253.00
2023-05-13T03:25:32.382Z,101246.00
2023-05-13T03:28:00.268Z,101257.00
2023-05-13T03:30:28.502Z,101258.00
2023-05-13T03:32:56.302Z,101260.00
2023-05-13T03:35:24.012Z,101265.00
2023-05-13T03:37:51.644Z,101218.00
2023-05-13T03:40:20.999Z,101256.00
2023-05-13T03:42:48.879Z,101263.00
2023-05-13T03:45:16.692Z,101265.00
2023-05-13T03:47:44.368Z,101273.00
2023-05-13T03:50:12.118Z,101267.00
2023-05-13T03:52:39.856Z,101269.00
2023-05-13T03:55:07.932Z,101279.00
2023-05-13T03:57:37.069Z,101271.00
2023-05-13T04:00:05.221Z,101281.00
2023-05-13T04:02:32.959Z,101275.00
2023-05-13T04:05:00.733Z,101281.00
2023-05-13T04:07:28.448Z,101281.00
2023-05-13T04:09:56.112Z,101271.00
2023-05-13T04:12:23.861Z,101282.00
2023-05-13T04:14:52.921Z,101279.00
2023-05-13T04:17:20.824Z,101280.00
2023-05-13T04:19:48.500Z,101284.00
2023-05-13T04:22:16.164Z,101283.00
2023-05-13T04:24:43.808Z,101283.00
2023-05-13T04:27:11.476Z,101279.00
2023-05-13T04:29:39.139Z,101291.00
2023-05-13T04:32:08.801Z,101279.00
2023-05-13T04:34:36.477Z,101279.00
2023-05-13T04:37:04.123Z,101282.00
2023-05-13T04:39:31.878Z,101276.00
2023-05-13T04:41:59.511Z,101282.00
2023-05-13T04:44:27.435Z,101284.00
2023-05-13T04:46:55.090Z,101278.00
2023-05-13T04:49:24.127Z,101285.00
2023-05-13T04:51:52.064Z,101281.00
2023-05-13T04:54:20.069Z,101284.00
2023-05-13T04:56:47.858Z,101291.00
2023-05-13T04:59:15.595Z,101296.00
2023-05-13T05:01:43.296Z,101300.00
2023-05-13T05:04:12.031Z,101287.00
2023-05-13T05:06:41.060Z,101294.00
2023-05-13T05:09:09.413Z,101304.00
2023-05-13T05:11:37.096Z,101297.00
2023-05-13T05:14:04.757Z,101303.00
2023-05-13T05:16:32.463Z,101303.00
2023-05-13T05:19:00.266Z,101302.00
2023-05-13T05:21:28.003Z,101297.00
2023-05-13T05:23:56.977Z,101294.00
2023-05-13T05:26:24.638Z,101307.00
2023-05-13T05:28:52.285Z,101302.00
2023-05-13T05:31:20.035Z,101307.00
2023-05-13T05:33:47.740Z,101305.00
2023-05-13T05:36:15.487Z,101310.00
2023-05-13T05:38:43.191Z,101313.00
2023-05-13T05:41:12.238Z,101314.00
2023-05-13T05:43:39.921Z,101323.00
2023-05-13T05:46:08.129Z,101316.00
2023-05-13T05:48:35.854Z,101315.00
2023-05-13T05:51:03.705Z,101319.00
2023-05-13T05:53:31.766Z,101314.00
2023-05-13T05:55:59.514Z,101313.00
2023-05-13T05:58:28.585Z,101318.00
2023-05-13T06:00:56.993Z,101312.00
2023-05-13T06:03:25.032Z,101321.00
2023-05-13T06:05:52.837Z,101318.00
2023-05-13T06:08:20.989Z,101319.00
2023-05-13T06:10:48.938Z,101313.00
2023-05-13T06:13:17.027Z,101324.00
2023-05-13T06:15:46.127Z,101327.00
2023-05-13T06:18:14.805Z,101318.00
2023-05-13T06:20:42.494Z,101313.00
2023-05-13T06:23:11.178Z,101321.00
2023-05-13T06:25:38.794Z,101324.00
2023-05-13T06:28:07.024Z,101321.00
2023-05-13T06:30:34.791Z,101325.00
2023-05-13T06:33:03.932Z,101331.00
2023-05-13T06:35:31.829Z,101323.00
2023-05-13T06:38:00.012Z,101316.00
2023-05-13T06:40:27.823Z,101321.00
2023-05-13T06:42:55.757Z,101315.00
2023-05-13T06:45:25.950Z,101324.00
2023-05-13T06:47:54.331Z,101323.00
2023-05-13T06:50:23.653Z,101323.00
2023-05-13T06:52:51.698Z,101311.00
2023-05-13T06:55:19.776Z,101327.00
2023-05-13T06:57:47.674Z,101326.00
2023-05-13T07:00:16.814Z,101325.00
2023-05-13T07:02:44.798Z,101323.00
2023-05-13T07:05:13.065Z,101314.00
2023-05-13T07:07:43.266Z,101320.00
2023-05-13T07:10:11.967Z,101325.00
2023-05-13T07:12:39.785Z,101321.00
2023-05-13T07:15:08.578Z,101315.00
2023-05-13T07:17:36.392Z,101324.00
2023-05-13T07:20:04.296Z,101312.00
2023-05-13T07:22:32.080Z,101323.00
2023-05-13T07:25:01.316Z,101315.00
2023-05-13T07:27:29.015Z,101323.00
2023-05-13T07:29:56.710Z,101316.00
2023-05-13T07:32:24.416Z,101313.00
2023-05-13T07:34:52.384Z,101307.00
2023-05-13T07:37:20.257Z,101318.00
2023-05-13T07:39:48.364Z,101304.00
2023-05-13T07:42:18.103Z,101309.00
2023-05-13T07:44:45.877Z,101319.00
2023-05-13T07:47:13.967Z,101310.00
2023-05-13T07:49:41.736Z,101315.00
2023-05-13T07:52:10.017Z,101325.00
2023-05-13T07:54:37.746Z,101314.00
2023-05-13T07:57:05.537Z,101310.00
2023-05-13T07:59:34.584Z,101311.00
2023-05-13T08:02:02.368Z,101319.00
2023-05-13T08:04:30.117Z,101319.00
2023-05-13T08:06:57.859Z,101314.00
2023-05-13T08:09:25.659Z,101321.00
2023-05-13T08:11:54.221Z,101324.00
2023-05-13T08:14:22.228Z,101334.00
2023-05-13T08:16:51.323Z,101329.00
2023-05-13T08:19:20.990Z,101332.00
2023-05-13T08:21:48.701Z,101331.00
2023-05-13T08:24:16.463Z,101329.00
2023-05-13T08:26:44.121Z,101324.00
2023-05-13T08:29:13.979Z,101328.00
2023-05-13T08:31:41.965Z,101321.00
2023-05-13T08:34:11.106Z,101327.00
2023-05-13T08:36:38.782Z,101326.00
2023-05-13T08:39:07.266Z,101328.00
2023-05-13T08:41:35.999Z,101337.00
2023-05-13T08:44:06.717Z,101333.00
2023-05-13T08:46:35.061Z,101340.00
2023-05-13T08:49:03.727Z,101333.00
2023-05-13T08:51:32.920Z,101324.00
2023-05-13T08:54:04.045Z,101326.00
2023-05-13T08:56:31.860Z,101326.00
2023-05-13T08:58:59.594Z,101369.00
2023-05-13T09:01:30.008Z,101325.00
2023-05-13T09:04:00.038Z,101329.00
2023-05-13T09:06:28.586Z,101330.00
2023-05-13T09:08:58.039Z,101334.00
2023-05-13T09:11:26.292Z,101331.00
2023-05-13T09:14:01.100Z,101328.00
2023-05-13T09:16:30.533Z,101325.00
2023-05-13T09:18:59.880Z,101322.00
2023-05-13T09:21:28.872Z,101330.00
2023-05-13T09:24:13.255Z,101322.00
2023-05-13T09:26:42.940Z,101321.00
2023-05-13T09:29:18.660Z,101322.00
2023-05-13T09:31:48.615Z,101322.00
2023-05-13T09:34:17.032Z,101317.00
2023-05-13T09:36:44.694Z,101327.00
2023-05-13T09:39:13.784Z,101322.00
2023-05-13T09:41:42.427Z,101313.00
2023-05-13T09:44:12.632Z,101320.00
2023-05-13T09:46:40.501Z,101325.00
2023-05-13T09:49:08.302Z,101323.00
2023-05-13T09:51:36.073Z,101315.00
2023-05-13T09:54:06.100Z,101324.00
2023-05-13T09:56:36.375Z,101323.00
2023-05-13T09:59:04.834Z,101322.00
2023-05-13T10:01:32.615Z,101325.00
2023-05-13T10:04:00.439Z,101318.00
2023-05-13T10:06:29.233Z,101323.00
2023-05-13T10:08:59.382Z,101327.00
2023-05-13T10:11:29.069Z,101325.00
2023-05-13T10:14:02.010Z,101328.00
2023-05-13T10:16:30.352Z,101334.00
2023-05-13T10:18:58.747Z,101324.00
2023-05-13T10:21:27.367Z,101327.00
2023-05-13T10:23:56.955Z,101316.00
2023-05-13T10:26:25.646Z,101315.00
2023-05-13T10:28:56.407Z,101314.00
2023-05-13T10:31:26.180Z,101313.00
2023-05-13T10:33:54.316Z,101313.00
2023-05-13T10:36:41.929Z,101312.00
2023-05-13T10:39:51.720Z,101312.00
2023-05-13T10:42:40.964Z,101310.00
2023-05-13T10:45:10.049Z,101304.00
2023-05-13T10:47:39.596Z,101313.00
2023-05-13T10:50:22.915Z,101310.00
2023-05-13T10:52:51.197Z,101301.00
2023-05-13T10:55:20.488Z,101310.00
2023-05-13T10:58:11.996Z,101303.00
2023-05-13T11:00:41.378Z,101303.00
2023-05-13T11:03:29.461Z,101321.00
2023-05-13T11:06:15.192Z,101308.00
2023-05-13T11:08:43.955Z,101300.00
2023-05-13T11:11:28.298Z,101303.00
2023-05-13T11:13:57.509Z,101303.00
2023-05-13T11:16:25.544Z,101307.00
2023-05-13T11:18:54.852Z,101308.00
2023-05-13T11:21:41.179Z,101311.00
2023-05-13T11:24:09.456Z,101303.00
2023-05-13T11:26:48.013Z,101301.00
2023-05-13T11:29:16.064Z,101306.00
2023-05-13T11:31:48.749Z,101309.00
2023-05-13T11:34:18.975Z,101306.00
2023-05-13T11:36:48.438Z,101290.00
2023-05-13T11:39:18.028Z,101302.00
2023-05-13T11:41:48.168Z,101302.00
2023-05-13T11:44:17.220Z,101296.00
2023-05-13T11:46:57.122Z,101296.00
2023-05-13T11:49:34.442Z,101279.00
2023-05-13T11:52:02.949Z,101301.00
2023-05-13T11:54:30.825Z,101306.00
2023-05-13T11:56:58.543Z,101302.00
2023-05-13T11:59:27.908Z,101293.00
2023-05-13T12:02:01.135Z,101300.00
2023-05-13T12:04:30.474Z,101288.00
2023-05-13T12:06:59.871Z,101298.00
2023-05-13T12:09:27.718Z,101300.00
2023-05-13T12:11:55.692Z,101305.00
2023-05-13T12:14:24.773Z,101287.00
2023-05-13T12:16:54.166Z,101291.00
2023-05-13T12:19:21.913Z,101291.00
2023-05-13T12:21:51.517Z,101283.00
2023-05-13T12:24:22.481Z,101296.00
2023-05-13T12:26:50.396Z,101279.00
2023-05-13T12:29:18.147Z,101301.00
2023-05-13T12:32:04.505Z,101295.00
2023-05-13T12:34:32.930Z,101294.00
2023-05-13T12:37:11.047Z,101281.00
2023-05-13T12:39:40.413Z,101295.00
2023-05-13T12:42:15.469Z,101297.00
2023-05-13T12:44:45.167Z,101293.00
2023-05-13T12:47:15.991Z,101286.00
2023-05-13T12:49:53.781Z,101291.00
2023-05-13T12:52:23.128Z,101286.00
2023-05-13T12:54:52.292Z,101288.00
2023-05-13T12:57:20.487Z,101278.00
2023-05-13T12:59:49.064Z,101284.00
2023-05-13T13:02:16.855Z,101275.00
2023-05-13T13:04:44.562Z,101280.00
2023-05-13T13:07:14.477Z,101279.00
2023-05-13T13:09:42.292Z,101279.00
2023-05-13T13:12:11.373Z,101275.00
2023-05-13T13:14:39.193Z,101275.00
2023-05-13T13:17:07.140Z,101277.00
2023-05-13T13:19:34.833Z,101276.00
2023-05-13T13:22:02.833Z,101271.00
2023-05-13T13:24:30.606Z,101273.00
2023-05-13T13:26:58.779Z,101272.00
2023-05-13T13:29:27.895Z,101279.00
2023-05-13T13:31:55.641Z,101280.00
2023-05-13T13:34:23.409Z,101266.00
2023-05-13T13:36:51.263Z,101276.00
2023-05-13T13:39:18.944Z,101274.00
2023-05-13T13:41:47.242Z,101273.00
2023-05-13T13:44:15.073Z,101268.00
2023-05-13T13:46:44.310Z,101261.00
2023-05-13T13:49:22.600Z,101264.00
2023-05-13T13:51:51.733Z,101263.00
2023-05-13T13:54:19.719Z,101237.00
2023-05-13T13:56:47.533Z,101249.00
2023-05-13T13:59:15.226Z,101249.00
2023-05-13T14:01:45.104Z,101255.00
2023-05-13T14:04:14.075Z,101264.00
2023-05-13T14:06:42.333Z,101263.00
2023-05-13T14:09:11.086Z,101254.00
2023-05-13T14:11:39.077Z,101255.00
2023-05-13T14:14:06.993Z,101237.00
2023-05-13T14:16:34.786Z,101249.00
2023-05-13T14:19:03.951Z,101231.00
2023-05-13T14:21:32.386Z,101240.00
2023-05-13T14:24:00.268Z,101239.00
2023-05-13T14:26:28.114Z,101243.00
2023-05-13T14:28:56.749Z,101239.00
2023-05-13T14:31:24.753Z,101258.00
2023-05-13T14:33:52.640Z,101239.00
2023-05-13T14:36:22.535Z,101239.00
2023-05-13T14:38:51.066Z,101236.00
2023-05-13T14:41:19.899Z,101232.00
2023-05-13T14:43:47.811Z,101227.00
2023-05-13T14:46:15.580Z,101225.00
2023-05-13T14:48:43.263Z,101222.00
2023-05-13T14:51:12.327Z,101230.00
2023-05-13T14:53:41.525Z,101228.00
2023-05-13T14:56:09.494Z,101219.00
2023-05-13T14:58:37.604Z,101228.00
2023-05-13T15:01:05.549Z,101238.00
2023-05-13T15:03:33.363Z,101232.00
2023-05-13T15:06:01.423Z,101235.00
2023-05-13T15:08:29.279Z,101227.00
2023-05-13T15:11:00.691Z,101222.00
2023-05-13T15:13:29.735Z,101228.00
2023-05-13T15:15:57.522Z,101217.00
2023-05-13T15:18:25.263Z,101214.00
2023-05-13T15:20:53.178Z,101218.00
2023-05-13T15:23:20.901Z,101226.00
2023-05-13T15:25:49.386Z,101216.00
2023-05-13T15:28:18.529Z,101225.00
2023-05-13T15:30:46.321Z,101221.00
2023-05-13T15:33:14.144Z,101214.00
2023-05-13T15:35:42.805Z,101218.00
2023-05-13T15:38:12.090Z,101210.00
2023-05-13T15:40:40.345Z,101214.00
2023-05-13T15:43:08.160Z,101208.00
2023-05-13T15:45:37.317Z,101214.00
2023-05-13T15:48:05.614Z,101212.00
2023-05-13T15:50:34.249Z,101209.00
2023-05-13T15:53:02.019Z,101207.00
2023-05-13T15:55:31.861Z,101208.00
2023-05-13T15:57:59.639Z,101206.00
2023-05-13T16:00:27.548Z,101202.00
2023-05-13T16:02:56.687Z,101196.00
2023-05-13T16:05:24.495Z,101200.00
2023-05-13T16:07:52.252Z,101197.00
2023-05-13T16:10:20.190Z,101195.00
2023-05-13T16:12:48.060Z,101190.00
2023-05-13T16:15:15.809Z,101192.00
2023-05-13T16:17:43.732Z,101197.00
2023-05-13T16:20:14.129Z,101195.00
2023-05-13T16:22:41.880Z,101191.00
2023-05-13T16:25:11.111Z,101207.00
2023-05-13T16:27:40.187Z,101205.00
2023-05-13T16:30:10.381Z,101195.00
2023-05-13T16:32:38.546Z,101203.00
2023-05-13T16:35:07.377Z,101198.00
2023-05-13T16:37:36.570Z,101203.00
2023-05-13T16:40:05.015Z,101195.00
2023-05-13T16:42:32.735Z,101207.00
2023-05-13T16:45:00.442Z,101213.00
2023-05-13T16:47:28.230Z,101202.00
2023-05-13T16:49:56.217Z,101200.00
2023-05-13T16:52:24.569Z,101199.00
2023-05-13T16:54:55.637Z,101203.00
2023-05-13T16:57:25.046Z,101198.00
2023-05-13T16:59:52.800Z,101197.00
2023-05-13T17:02:20.746Z,101194.00
2023-05-13T17:04:48.558Z,101193.00
2023-05-13T17:07:16.304Z,101200.00
2023-05-13T17:09:44.571Z,101194.00
2023-05-13T17:12:13.893Z,101205.00
2023-05-13T17:14:41.602Z,101195.00
2023-05-13T17:17:09.413Z,101188.00
2023-05-13T17:19:37.146Z,101188.00
2023-05-13T17:22:05.181Z,101188.00
2023-05-13T17:24:33.148Z,101191.00
2023-05-13T17:27:00.906Z,101186.00
2023-05-13T17:29:29.978Z,101179.00
2023-05-13T17:31:57.724Z,101181.00
2023-05-13T17:34:25.625Z,101172.00
2023-05-13T17:36:53.428Z,101182.00
2023-05-13T17:39:21.128Z,101171.00
2023-05-13T17:41:48.949Z,101174.00
2023-05-13T17:44:17.023Z,101179.00
2023-05-13T17:46:46.122Z,101184.00
2023-05-13T17:49:13.845Z,101180.00
2023-05-13T17:51:42.285Z,101186.00
2023-05-13T17:54:12.131Z,101179.00
2023-05-13T17:56:40.131Z,101178.00
2023-05-13T17:59:08.080Z,101177.00
2023-05-13T18:01:35.891Z,101180.00
2023-05-13T18:04:05.009Z,101179.00
2023-05-13T18:06:32.751Z,101185.00
2023-05-13T18:09:00.553Z,101187.00
2023-05-13T18:11:29.143Z,101183.00
2023-05-13T18:13:56.812Z,101188.00
2023-05-13T18:16:24.662Z,101187.00
2023-05-13T18:18:52.454Z,101197.00
2023-05-13T18:21:24.100Z,101184.00
2023-05-13T18:23:52.010Z,101189.00
2023-05-13T18:26:20.130Z,101200.00
2023-05-13T18:28:48.175Z,101191.00
2023-05-13T18:31:16.016Z,101206.00
2023-05-13T18:33:44.171Z,101191.00
2023-05-13T18:36:13.165Z,101184.00
2023-05-13T18:38:42.461Z,101193.00
2023-05-13T18:41:10.310Z,101187.00
2023-05-13T18:43:39.367Z,101199.00
2023-05-13T18:46:07.222Z,101200.00
2023-05-13T18:48:35.012Z,101211.00
2023-05-13T18:51:02.832Z,101204.00
2023-05-13T18:53:30.616Z,101204.00
2023-05-13T18:55:59.824Z,101203.00
2023-05-13T18:58:28.698Z,101206.00
2023-05-13T19:00:56.911Z,101204.00
2023-05-13T19:03:26.669Z,101210.00
2023-05-13T19:05:54.913Z,101213.00
2023-05-13T19:08:22.697Z,101212.00
2023-05-13T19:10:51.160Z,101197.00
2023-05-13T19:13:30.679Z,101212.00
2023-05-13T19:16:04.647Z,101211.00
2023-05-13T19:18:36.213Z,101213.00
2023-05-13T19:21:06.051Z,101209.00
2023-05-13T19:23:34.200Z,101186.00
2023-05-13T19:26:02.183Z,101213.00
2023-05-13T19:28:33.296Z,101213.00
2023-05-13T19:31:04.066Z,101214.00
2023-05-13T19:33:32.195Z,101215.00
2023-05-13T19:35:59.975Z,101214.00
2023-05-13T19:38:27.913Z,101222.00
2023-05-13T19:40:55.902Z,101223.00
2023-05-13T19:43:24.166Z,101227.00
2023-05-13T19:45:55.404Z,101222.00
2023-05-13T19:48:23.180Z,101214.00
2023-05-13T19:50:53.354Z,101214.00
2023-05-13T19:53:21.878Z,101221.00
2023-05-13T19:55:52.367Z,101227.00
2023-05-13T19:58:20.276Z,101223.00
2023-05-13T20:00:48.175Z,101227.00
2023-05-13T20:03:17.997Z,101214.00
2023-05-13T20:05:50.447Z,101209.00
2023-05-13T20:08:19.262Z,101231.00
2023-05-13T20:10:47.441Z,101198.00
2023-05-13T20:13:16.171Z,101235.00
2023-05-13T20:19:27.229Z,101209.00
2023-05-13T20:21:55.282Z,101226.00
2023-05-13T20:24:22.989Z,101220.00
2023-05-13T20:26:50.732Z,101226.00
2023-05-13T20:29:18.733Z,101221.00
2023-05-13T20:31:46.754Z,101217.00
2023-05-13T20:34:15.267Z,101216.00
2023-05-13T20:36:45.228Z,101216.00
2023-05-13T20:39:13.342Z,101222.00
2023-05-13T20:41:41.381Z,101209.00
2023-05-13T20:44:09.119Z,101220.00
2023-05-13T20:46:36.886Z,101218.00
2023-05-13T20:49:07.517Z,101220.00
2023-05-13T20:51:35.565Z,101219.00
2023-05-13T20:54:06.950Z,101221.00
2023-05-13T20:56:34.756Z,101212.00
2023-05-13T20:59:02.711Z,101226.00
2023-05-13T21:01:31.107Z,101215.00
2023-05-13T21:03:58.890Z,101211.00
2023-05-13T21:06:28.296Z,101213.00
2023-05-13T21:08:56.226Z,101228.00
2023-05-13T21:11:25.724Z,101224.00
2023-05-13T21:13:53.459Z,101226.00
2023-05-13T21:16:21.259Z,101220.00
2023-05-13T21:18:49.225Z,101208.00
2023-05-13T21:21:17.007Z,101226.00
2023-05-13T21:23:45.628Z,101225.00
2023-05-13T21:26:14.156Z,101221.00
2023-05-13T21:28:43.385Z,101220.00
2023-05-13T21:31:11.169Z,101229.00
2023-05-13T21:33:39.026Z,101227.00
2023-05-13T21:36:07.094Z,101232.00
2023-05-13T21:38:35.021Z,101226.00
2023-05-13T21:41:02.729Z,101226.00
2023-05-13T21:43:30.490Z,101232.00
2023-05-13T21:45:59.815Z,101233.00
2023-05-13T21:48:27.583Z,101235.00
2023-05-13T21:50:55.604Z,101235.00
2023-05-13T21:53:23.307Z,101238.00
2023-05-13T21:55:51.514Z,101233.00
2023-05-13T21:58:20.654Z,101229.00
2023-05-13T22:00:49.618Z,101231.00
2023-05-13T22:03:19.114Z,101239.00
2023-05-13T22:05:47.053Z,101245.00
2023-05-13T22:08:14.835Z,101236.00
2023-05-13T22:10:43.659Z,101235.00
2023-05-13T22:13:11.554Z,101232.00
2023-05-13T22:15:39.683Z,101230.00
2023-05-13T22:18:07.788Z,101225.00
2023-05-13T22:20:37.134Z,101239.00
2023-05-13T22:23:04.860Z,101237.00
2023-05-13T22:25:32.562Z,101239.00
2023-05-13T22:28:00.236Z,101228.00
2023-05-13T22:30:28.209Z,101238.00
2023-05-13T22:32:56.453Z,101237.00
2023-05-13T22:35:24.189Z,101235.00
2023-05-13T22:37:53.475Z,101246.00
2023-05-13T22:40:21.421Z,101246.00
2023-05-13T22:42:49.268Z,101230.00
2023-05-13T22:45:17.263Z,101241.00
2023-05-13T22:47:45.031Z,101243.00
2023-05-13T22:50:13.277Z,101240.00
2023-05-13T22:52:41.026Z,101241.00
2023-05-13T22:55:10.875Z,101245.00
2023-05-13T22:57:38.562Z,101240.00
2023-05-13T23:00:07.734Z,101234.00
2023-05-13T23:02:35.468Z,101240.00
2023-05-13T23:05:03.184Z,101234.00
2023-05-13T23:07:30.953Z,101252.00
2023-05-13T23:09:58.870Z,101245.00
2023-05-13T23:12:28.034Z,101244.00
2023-05-13T23:14:55.801Z,101222.00
2023-05-13T23:17:23.587Z,101238.00
2023-05-13T23:19:51.361Z,101221.00
2023-05-13T23:22:19.112Z,101236.00
2023-05-13T23:24:46.912Z,101237.00
2023-05-13T23:27:14.643Z,101230.00
2023-05-13T23:29:43.744Z,101221.00
2023-05-13T23:32:11.503Z,101226.00
2023-05-13T23:34:39.290Z,101228.00
2023-05-13T23:37:07.119Z,101219.00
2023-05-13T23:39:35.024Z,101221.00
2023-05-13T23:42:02.747Z,101232.00
2023-05-13T23:44:31.528Z,101236.00
2023-05-13T23:47:00.640Z,101235.00
2023-05-13T23:49:28.329Z,101232.00
2023-05-13T23:51:56.071Z,101236.00
2023-05-13T23:54:23.898Z,101236.00
2023-05-13T23:56:52.276Z,101235.00
2023-05-13T23:59:19.987Z,101240.00
